Time;durP1;ratioP1;P1;durP2;ratioP2;P2;SDS_P1;SDS_P2;PMS_P1;PMS_P2;Temp;Humidity;BMP_temperature;BMP_pressure;BME280_temperature;BME280_humidity;BME280_pressure;Samples;Min_cycle;Max_cycle;Signal;HPM_P1;HPM_P2
2022/06/25 00:01:15;;;;;;;4.33;3.90;;;20.80;99.90;;;;;;5062122;28;20450;-88
2022/06/25 00:03:59;;;;;;;4.03;3.60;;;20.70;99.90;;;;;;5039273;28;20594;-87
2022/06/25 00:06:28;;;;;;;4.07;3.47;;;20.60;99.90;;;;;;5046000;28;20459;-86
2022/06/25 00:08:55;;;;;;;5.73;4.00;;;20.50;99.90;;;;;;5024744;28;20460;-86
2022/06/25 00:14:42;;;;;;;7.37;4.13;;;20.50;99.90;;;;;;5043239;28;20989;-85
2022/06/25 00:17:08;;;;;;;3.83;3.43;;;20.50;99.90;;;;;;5044652;28;20461;-85
2022/06/25 00:19:41;;;;;;;4.80;3.83;;;20.40;99.90;;;;;;5043054;28;20488;-81
2022/06/25 00:22:15;;;;;;;6.67;3.57;;;20.40;99.90;;;;;;5044347;28;20513;-86
2022/06/25 00:24:48;;;;;;;4.30;3.60;;;20.40;99.90;;;;;;5039361;28;20474;-87
2022/06/25 00:27:21;;;;;;;3.43;3.10;;;20.40;99.90;;;;;;5022724;28;20513;-84
2022/06/25 00:29:48;;;;;;;3.53;3.33;;;20.30;99.90;;;;;;5039497;28;20464;-85
2022/06/25 00:32:15;;;;;;;3.20;2.63;;;20.30;99.90;;;;;;5043773;28;20980;-83
2022/06/25 00:34:42;;;;;;;3.40;3.20;;;20.30;99.90;;;;;;5025799;28;20524;-85
2022/06/25 00:37:09;;;;;;;3.17;2.97;;;20.30;99.90;;;;;;5025900;28;20468;-83
2022/06/25 00:39:37;;;;;;;3.67;3.47;;;20.20;99.90;;;;;;5025567;28;21177;-85
2022/06/25 00:42:13;;;;;;;4.50;4.10;;;20.30;99.90;;;;;;5044378;28;20452;-86
2022/06/25 00:44:48;;;;;;;4.60;3.30;;;20.20;99.90;;;;;;5046716;28;20476;-85
2022/06/25 00:47:22;;;;;;;3.40;3.10;;;20.20;99.90;;;;;;5030392;28;20452;-84
2022/06/25 00:49:50;;;;;;;3.57;3.27;;;20.20;99.90;;;;;;5048319;28;20444;-85
2022/06/25 00:52:27;;;;;;;3.30;3.10;;;20.20;99.90;;;;;;5049977;28;20465;-84
2022/06/25 00:55:25;;;;;;;4.17;3.80;;;20.20;99.90;;;;;;5049636;28;20600;-86
2022/06/25 00:57:52;;;;;;;3.43;3.00;;;20.40;99.90;;;;;;5033000;28;20482;-85
2022/06/25 01:00:19;;;;;;;6.77;3.53;;;20.30;99.90;;;;;;5065879;28;20456;-88
2022/06/25 01:02:46;;;;;;;3.07;2.87;;;20.30;99.90;;;;;;5047533;28;20452;-89
2022/06/25 01:05:15;;;;;;;3.33;3.13;;;20.30;99.90;;;;;;5040566;28;20452;-85
2022/06/25 01:07:45;;;;;;;3.50;3.20;;;20.30;99.90;;;;;;5056110;28;20487;-86
2022/06/25 01:10:13;;;;;;;3.87;2.97;;;20.40;99.90;;;;;;5036676;28;20455;-86
2022/06/25 01:12:40;;;;;;;3.53;3.20;;;20.40;99.90;;;;;;5053963;28;20935;-87
2022/06/25 01:15:15;;;;;;;3.13;2.90;;;20.40;99.90;;;;;;5033744;28;20514;-86
2022/06/25 01:17:48;;;;;;;3.60;3.20;;;20.40;99.90;;;;;;5036930;28;20490;-84
2022/06/25 01:20:16;;;;;;;3.73;3.40;;;20.40;99.90;;;;;;5038742;28;20456;-87
2022/06/25 01:22:43;;;;;;;4.70;3.50;;;20.40;99.90;;;;;;5051439;28;20916;-83
2022/06/25 01:25:11;;;;;;;3.57;3.10;;;20.20;99.90;;;;;;5032653;28;20460;-87
2022/06/25 01:27:39;;;;;;;3.07;2.87;;;20.10;99.90;;;;;;5030613;28;20461;-85
2022/06/25 01:30:09;;;;;;;4.50;2.80;;;19.90;99.90;;;;;;5049867;28;20459;-85
2022/06/25 01:32:36;;;;;;;4.67;3.03;;;19.80;99.90;;;;;;5051062;28;20467;-84
2022/06/25 01:35:04;;;;;;;5.13;3.40;;;19.80;99.90;;;;;;5049655;28;20476;-85
2022/06/25 01:37:32;;;;;;;4.00;3.07;;;19.70;99.90;;;;;;5031155;28;20448;-83
2022/06/25 01:40:00;;;;;;;3.73;3.43;;;19.60;99.90;;;;;;5027824;28;20512;-83
2022/06/25 01:45:13;;;;;;;3.33;3.00;;;19.70;99.90;;;;;;5047930;28;20459;-85
2022/06/25 01:47:40;;;;;;;5.20;3.30;;;19.90;99.90;;;;;;5047016;28;20463;-86
2022/06/25 01:50:08;;;;;;;4.80;3.73;;;19.80;99.90;;;;;;5048498;28;20467;-84
2022/06/25 01:52:35;;;;;;;4.70;2.87;;;19.80;99.90;;;;;;5047606;28;20456;-86
2022/06/25 01:55:03;;;;;;;4.87;3.37;;;19.80;99.90;;;;;;5047330;28;20486;-85
2022/06/25 01:57:30;;;;;;;3.13;2.80;;;19.80;99.90;;;;;;5048664;28;20464;-88
2022/06/25 01:59:58;;;;;;;2.80;2.60;;;19.60;99.90;;;;;;5030815;28;20473;-84
2022/06/25 02:02:25;;;;;;;2.90;2.70;;;19.90;99.90;;;;;;5031177;28;20559;-86
2022/06/25 02:04:52;;;;;;;3.20;3.00;;;19.80;99.90;;;;;;5049036;28;20966;-85
2022/06/25 02:07:19;;;;;;;2.80;2.60;;;20.00;99.90;;;;;;5029893;28;20547;-86
2022/06/25 02:09:46;;;;;;;2.80;2.60;;;20.00;99.90;;;;;;5048822;28;20467;-85
2022/06/25 02:12:12;;;;;;;2.90;2.70;;;19.90;99.90;;;;;;5027119;28;20464;-87
2022/06/25 02:14:39;;;;;;;3.60;2.63;;;19.90;99.90;;;;;;5049619;28;20486;-88
2022/06/25 02:17:06;;;;;;;2.80;2.60;;;19.80;99.90;;;;;;5048861;28;20444;-85
2022/06/25 02:19:33;;;;;;;6.03;3.50;;;19.70;99.90;;;;;;5031215;28;20483;-87
2022/06/25 02:22:00;;;;;;;4.70;2.63;;;19.60;99.90;;;;;;5032895;28;20521;-86
2022/06/25 02:24:27;;;;;;;3.53;3.23;;;19.60;99.90;;;;;;5049004;28;20568;-83
2022/06/25 02:26:54;;;;;;;3.20;2.90;;;19.60;99.90;;;;;;5028342;28;20468;-86
2022/06/25 02:29:24;;;;;;;3.53;3.03;;;19.60;99.90;;;;;;5032911;28;20471;-87
2022/06/25 02:31:51;;;;;;;4.50;2.97;;;19.60;99.90;;;;;;5050034;28;21052;-86
2022/06/25 02:34:19;;;;;;;3.90;3.40;;;19.50;99.90;;;;;;5037405;28;20480;-87
2022/06/25 02:37:00;;;;;;;3.67;2.93;;;19.50;99.90;;;;;;5022170;28;20461;-88
2022/06/25 02:39:27;;;;;;;3.07;2.87;;;19.50;99.90;;;;;;5055494;28;20472;-88
2022/06/25 02:41:57;;;;;;;4.73;2.63;;;19.40;99.90;;;;;;5040438;28;20448;-86
2022/06/25 02:44:24;;;;;;;3.70;3.20;;;19.30;99.90;;;;;;5040264;28;20476;-86
2022/06/25 02:47:18;;;;;;;3.80;2.70;;;19.40;99.90;;;;;;5056322;28;20535;-90
2022/06/25 02:49:44;;;;;;;5.37;3.50;;;19.40;99.90;;;;;;5061694;28;20537;-89
2022/06/25 02:52:11;;;;;;;6.03;3.27;;;19.20;99.90;;;;;;5048199;28;20463;-85
2022/06/25 02:54:38;;;;;;;3.90;3.20;;;19.30;99.90;;;;;;5043360;28;21052;-85
2022/06/25 02:59:50;;;;;;;2.67;2.33;;;19.30;99.90;;;;;;5054458;28;20480;-84
2022/06/25 03:02:17;;;;;;;5.13;3.00;;;19.30;99.90;;;;;;5061169;28;20447;-87
2022/06/25 03:04:44;;;;;;;3.80;2.97;;;19.40;99.90;;;;;;5030149;28;20534;-83
2022/06/25 03:07:10;;;;;;;3.27;2.70;;;19.30;99.90;;;;;;5038583;28;20464;-83
2022/06/25 03:09:37;;;;;;;2.50;2.33;;;19.40;99.90;;;;;;5027818;28;20455;-82
2022/06/25 03:12:05;;;;;;;3.50;3.20;;;19.50;99.90;;;;;;5049913;28;20495;-84
2022/06/25 03:14:32;;;;;;;3.63;2.60;;;19.60;99.90;;;;;;5032975;28;20472;-86
2022/06/25 03:16:59;;;;;;;9.20;3.20;;;19.60;99.90;;;;;;5035079;28;20449;-87
2022/06/25 03:19:26;;;;;;;4.13;2.60;;;19.50;99.90;;;;;;5051089;28;20491;-84
2022/06/25 03:21:53;;;;;;;3.60;2.70;;;19.40;99.90;;;;;;5034325;28;20502;-84
2022/06/25 03:24:23;;;;;;;3.00;2.80;;;19.30;99.90;;;;;;5036114;28;20472;-85
2022/06/25 03:26:50;;;;;;;3.50;3.20;;;19.30;99.90;;;;;;5034759;28;20513;-85
2022/06/25 03:29:17;;;;;;;3.20;3.00;;;19.10;99.90;;;;;;5036402;28;20461;-84
2022/06/25 03:31:44;;;;;;;3.17;2.90;;;19.10;99.90;;;;;;5041408;28;20440;-85
2022/06/25 03:34:27;;;;;;;7.00;3.23;;;19.10;99.90;;;;;;5047892;28;20487;-85
2022/06/25 03:36:54;;;;;;;4.30;3.00;;;19.10;99.90;;;;;;5068956;28;20665;-88
2022/06/25 03:39:23;;;;;;;3.77;3.00;;;19.10;99.90;;;;;;5044461;28;20491;-87
2022/06/25 03:41:50;;;;;;;2.67;2.47;;;19.20;99.90;;;;;;5053459;28;20476;-85
2022/06/25 03:44:16;;;;;;;6.67;2.80;;;19.30;99.90;;;;;;5040064;28;20476;-88
2022/06/25 03:46:49;;;;;;;6.33;2.93;;;19.30;99.90;;;;;;5058992;28;21150;-86
2022/06/25 03:49:24;;;;;;;4.40;3.00;;;19.20;99.90;;;;;;5052951;28;20502;-86
2022/06/25 03:52:02;;;;;;;3.60;3.30;;;19.20;99.90;;;;;;5045394;28;20471;-83
2022/06/25 03:54:28;;;;;;;8.10;2.90;;;19.20;99.90;;;;;;5043565;28;20561;-85
2022/06/25 03:56:56;;;;;;;3.83;3.43;;;19.20;99.90;;;;;;5045506;28;20552;-85
2022/06/25 03:59:23;;;;;;;3.90;3.00;;;19.20;99.90;;;;;;5043599;28;20939;-84
2022/06/25 04:01:49;;;;;;;3.30;3.10;;;19.20;99.90;;;;;;5044257;28;20478;-83
2022/06/25 04:04:16;;;;;;;3.20;2.90;;;19.20;99.90;;;;;;5026795;28;20471;-85
2022/06/25 04:06:43;;;;;;;3.07;2.87;;;19.20;99.90;;;;;;5046092;28;20478;-86
2022/06/25 04:09:10;;;;;;;6.23;3.10;;;19.30;99.90;;;;;;5046469;28;20460;-84
2022/06/25 04:11:47;;;;;;;3.83;2.93;;;19.30;99.90;;;;;;5030305;28;20486;-85
2022/06/25 04:14:14;;;;;;;3.63;3.27;;;19.30;99.90;;;;;;5050186;28;20480;-86
2022/06/25 04:16:41;;;;;;;3.90;3.17;;;19.20;99.90;;;;;;5051292;28;20464;-84
2022/06/25 04:19:08;;;;;;;4.00;3.07;;;19.20;99.90;;;;;;5051393;28;20576;-84
2022/06/25 04:21:34;;;;;;;3.70;3.40;;;19.10;99.90;;;;;;5054595;28;20469;-86
2022/06/25 04:24:01;;;;;;;4.60;2.97;;;19.20;99.90;;;;;;5039373;28;20448;-86
2022/06/25 04:26:30;;;;;;;3.67;3.37;;;19.30;99.90;;;;;;5057412;28;20476;-85
2022/06/25 04:29:03;;;;;;;2.90;2.70;;;19.20;99.90;;;;;;5055638;28;20560;-87
2022/06/25 04:31:33;;;;;;;3.73;3.00;;;19.30;99.90;;;;;;5055513;28;20480;-87
2022/06/25 04:34:00;;;;;;;4.97;3.50;;;19.30;99.90;;;;;;5048841;28;20468;-87
2022/06/25 04:36:28;;;;;;;4.57;3.00;;;19.20;99.90;;;;;;5038484;28;20597;-86
2022/06/25 04:38:54;;;;;;;3.63;3.33;;;19.20;99.90;;;;;;5036090;28;20468;-86
2022/06/25 04:41:22;;;;;;;3.10;2.90;;;19.20;99.90;;;;;;5057832;28;20538;-88
2022/06/25 04:43:49;;;;;;;4.10;3.70;;;19.30;99.90;;;;;;5058562;28;20575;-86
2022/06/25 04:46:16;;;;;;;4.60;3.40;;;19.30;99.90;;;;;;5039363;28;20559;-88
2022/06/25 04:48:42;;;;;;;5.17;3.17;;;19.30;99.90;;;;;;5058597;28;20458;-85
2022/06/25 04:51:09;;;;;;;3.77;3.30;;;19.30;99.90;;;;;;5042284;28;20448;-84
2022/06/25 04:53:54;;;;;;;3.03;2.83;;;19.30;99.90;;;;;;5059287;28;20480;-86
2022/06/25 04:56:26;;;;;;;4.27;3.03;;;19.40;99.90;;;;;;5041547;28;20444;-87
2022/06/25 04:58:54;;;;;;;3.60;3.30;;;19.60;99.90;;;;;;5060551;28;20467;-85
2022/06/25 05:01:22;;;;;;;4.10;3.20;;;19.70;99.90;;;;;;5054557;28;20527;-87
2022/06/25 05:03:49;;;;;;;8.10;3.40;;;19.60;99.90;;;;;;5059725;28;20555;-85
2022/06/25 05:06:15;;;;;;;5.27;3.70;;;19.60;99.90;;;;;;5059505;28;20580;-87
2022/06/25 05:08:42;;;;;;;4.77;3.40;;;19.60;99.90;;;;;;5059360;28;21021;-87
2022/06/25 05:11:09;;;;;;;5.50;3.20;;;19.80;99.90;;;;;;5058503;28;20459;-84
2022/06/25 05:13:35;;;;;;;3.40;2.93;;;19.70;99.90;;;;;;5056826;28;21171;-85
2022/06/25 05:16:02;;;;;;;6.20;3.23;;;19.70;99.90;;;;;;5055935;28;21592;-85
2022/06/25 05:18:29;;;;;;;3.87;3.20;;;19.90;99.90;;;;;;5033000;28;20512;-85
2022/06/25 05:20:56;;;;;;;4.30;2.80;;;19.80;99.90;;;;;;5057981;28;20476;-86
2022/06/25 05:23:23;;;;;;;3.50;3.17;;;19.80;99.90;;;;;;5060166;28;20488;-84
2022/06/25 05:25:51;;;;;;;5.20;3.50;;;20.00;99.90;;;;;;5040273;28;21292;-83
2022/06/25 05:28:17;;;;;;;4.50;3.27;;;20.10;99.90;;;;;;5032256;28;20457;-87
2022/06/25 05:30:45;;;;;;;4.53;3.00;;;20.10;99.90;;;;;;5031206;28;20444;-84
2022/06/25 05:33:11;;;;;;;7.73;5.13;;;20.20;99.90;;;;;;5031257;28;20557;-83
2022/06/25 05:35:38;;;;;;;6.37;3.70;;;20.30;99.90;;;;;;5051024;28;20476;-87
2022/06/25 05:38:07;;;;;;;4.70;2.90;;;20.30;99.90;;;;;;5050772;28;20483;-82
2022/06/25 05:40:35;;;;;;;6.23;3.13;;;20.40;99.90;;;;;;5048130;28;20586;-85
2022/06/25 05:43:02;;;;;;;3.87;3.27;;;20.30;99.90;;;;;;5027943;28;20472;-86
2022/06/25 05:45:29;;;;;;;3.60;3.40;;;20.40;99.90;;;;;;5044578;28;20490;-85
2022/06/25 05:47:56;;;;;;;3.40;3.10;;;20.30;99.90;;;;;;5052530;28;20456;-85
2022/06/25 05:50:29;;;;;;;8.00;3.77;;;20.40;99.90;;;;;;5029881;28;20547;-88
2022/06/25 05:52:56;;;;;;;5.30;3.10;;;20.40;99.90;;;;;;5046506;28;20459;-85
2022/06/25 05:55:24;;;;;;;3.70;3.40;;;20.60;99.90;;;;;;5050775;28;20459;-89
2022/06/25 05:57:51;;;;;;;3.73;3.37;;;20.50;99.90;;;;;;5043494;28;20471;-85
2022/06/25 06:00:18;;;;;;;4.03;3.57;;;20.50;99.90;;;;;;5050881;28;20491;-86
2022/06/25 06:02:45;;;;;;;5.13;3.57;;;20.80;99.90;;;;;;5032178;28;20543;-85
2022/06/25 06:05:12;;;;;;;6.67;3.30;;;21.00;99.90;;;;;;5035028;28;20471;-84
2022/06/25 06:07:39;;;;;;;4.83;3.33;;;21.00;99.90;;;;;;5032396;28;20471;-84
2022/06/25 06:10:19;;;;;;;4.30;3.37;;;21.00;99.90;;;;;;5051916;28;20511;-85
2022/06/25 06:12:45;;;;;;;3.40;3.20;;;21.10;99.90;;;;;;5050941;28;20460;-84
2022/06/25 06:15:24;;;;;;;7.53;3.33;;;21.00;99.90;;;;;;5051722;28;20464;-84
2022/06/25 06:17:58;;;;;;;4.23;3.10;;;21.00;99.90;;;;;;5036030;28;20468;-84
2022/06/25 06:20:25;;;;;;;4.70;3.03;;;21.10;99.90;;;;;;5064547;28;20484;-85
2022/06/25 06:22:51;;;;;;;3.23;2.97;;;21.10;99.90;;;;;;5054322;28;20671;-85
2022/06/25 06:25:18;;;;;;;3.10;2.90;;;21.00;99.90;;;;;;5037706;28;20456;-85
2022/06/25 06:27:50;;;;;;;3.77;3.47;;;21.10;99.90;;;;;;5058631;28;20445;-84
2022/06/25 06:30:17;;;;;;;3.40;3.20;;;21.10;99.90;;;;;;5065871;28;20444;-85
2022/06/25 06:32:44;;;;;;;3.73;3.10;;;21.10;99.90;;;;;;5064476;28;20520;-86
2022/06/25 06:35:10;;;;;;;3.00;2.70;;;21.10;99.90;;;;;;5065483;28;20664;-87
2022/06/25 06:37:37;;;;;;;3.60;2.53;;;21.10;99.90;;;;;;5046663;28;20471;-86
2022/06/25 06:40:06;;;;;;;3.40;3.00;;;21.10;99.90;;;;;;5064035;28;20495;-86
2022/06/25 06:42:32;;;;;;;2.83;2.63;;;21.30;99.90;;;;;;5061867;28;20461;-87
2022/06/25 06:44:59;;;;;;;3.97;3.00;;;21.20;99.90;;;;;;5043641;28;20487;-88
2022/06/25 06:47:26;;;;;;;3.30;3.03;;;21.40;99.60;;;;;;5044814;28;20452;-86
2022/06/25 06:49:56;;;;;;;2.67;2.47;;;21.60;99.90;;;;;;5062004;28;20460;-90
2022/06/25 06:52:31;;;;;;;3.83;3.10;;;21.60;98.80;;;;;;5060094;28;20478;-86
2022/06/25 06:54:59;;;;;;;2.67;2.20;;;21.60;98.80;;;;;;5060186;28;20502;-86
2022/06/25 06:57:26;;;;;;;3.30;3.00;;;21.70;98.30;;;;;;5059625;28;20500;-87
2022/06/25 06:59:53;;;;;;;3.60;2.70;;;21.70;98.20;;;;;;5061503;28;20556;-89
2022/06/25 07:02:27;;;;;;;3.40;2.30;;;21.70;97.60;;;;;;5060685;28;20452;-87
2022/06/25 07:04:54;;;;;;;4.90;2.50;;;21.90;97.30;;;;;;5061782;28;20474;-86
2022/06/25 07:07:21;;;;;;;2.97;2.73;;;22.10;97.00;;;;;;5061524;28;20440;-86
2022/06/25 07:09:53;;;;;;;3.50;2.47;;;22.20;96.90;;;;;;5047255;28;20468;-86
2022/06/25 07:12:20;;;;;;;2.93;2.37;;;22.20;96.40;;;;;;5048877;28;20475;-86
2022/06/25 07:14:47;;;;;;;3.70;2.40;;;22.30;96.20;;;;;;5064499;28;20472;-86
2022/06/25 07:17:13;;;;;;;2.50;2.30;;;22.20;96.20;;;;;;5064149;28;20440;-85
2022/06/25 07:19:40;;;;;;;4.40;3.60;;;22.30;96.30;;;;;;5062443;28;20467;-85
2022/06/25 07:22:07;;;;;;;2.77;2.57;;;22.20;95.80;;;;;;5063102;28;20467;-85
2022/06/25 07:24:33;;;;;;;4.50;2.40;;;22.40;95.50;;;;;;5063544;28;20606;-87
2022/06/25 07:27:00;;;;;;;2.00;1.90;;;22.40;95.50;;;;;;5046363;28;20436;-87
2022/06/25 07:29:27;;;;;;;3.30;1.93;;;22.40;95.70;;;;;;5045957;28;20463;-87
2022/06/25 07:31:56;;;;;;;3.07;2.60;;;22.50;95.40;;;;;;5048539;28;20523;-87
2022/06/25 07:34:23;;;;;;;9.07;6.70;;;22.60;95.10;;;;;;5071433;28;20464;-86
2022/06/25 07:36:49;;;;;;;5.53;2.87;;;22.60;94.90;;;;;;5049120;28;20439;-87
2022/06/25 07:39:16;;;;;;;2.63;2.40;;;22.50;94.90;;;;;;5062037;28;20452;-84
2022/06/25 07:41:44;;;;;;;2.67;2.20;;;22.60;94.30;;;;;;5052786;28;20517;-83
2022/06/25 07:44:12;;;;;;;3.90;2.20;;;22.80;94.60;;;;;;5053246;28;20462;-87
2022/06/25 07:46:39;;;;;;;1.97;1.87;;;22.90;94.00;;;;;;5054030;28;20451;-83
2022/06/25 07:49:07;;;;;;;2.90;2.00;;;23.00;93.50;;;;;;5024256;28;20454;-84
2022/06/25 07:54:19;;;;;;;2.43;2.23;;;23.00;92.90;;;;;;5054616;28;20466;-84
2022/06/25 07:56:46;;;;;;;3.13;2.73;;;23.10;92.40;;;;;;5054088;28;20466;-85
2022/06/25 07:59:13;;;;;;;4.27;2.10;;;23.10;93.00;;;;;;5054874;28;20463;-85
2022/06/25 08:01:40;;;;;;;4.90;1.80;;;23.10;93.20;;;;;;5038776;28;20482;-88
2022/06/25 08:04:09;;;;;;;2.63;1.90;;;23.50;92.40;;;;;;5056825;28;20506;-86
2022/06/25 08:06:41;;;;;;;2.90;2.13;;;23.60;91.50;;;;;;5052355;28;20448;-85
2022/06/25 08:09:10;;;;;;;2.40;1.93;;;23.50;91.50;;;;;;5035149;28;20460;-86
2022/06/25 08:11:38;;;;;;;3.53;1.70;;;23.60;91.50;;;;;;5035818;28;20467;-87
2022/06/25 08:14:04;;;;;;;1.90;1.80;;;23.70;90.90;;;;;;5052500;28;20506;-86
2022/06/25 08:16:32;;;;;;;2.93;2.20;;;23.90;89.50;;;;;;5059470;28;20543;-87
2022/06/25 08:19:15;;;;;;;3.30;1.70;;;24.10;89.50;;;;;;5044010;28;20496;-86
2022/06/25 08:21:48;;;;;;;3.80;2.97;;;23.90;89.20;;;;;;5061012;28;20490;-83
2022/06/25 08:25:01;;;;;;;2.37;1.80;;;23.70;90.20;;;;;;5046522;28;20496;-85
2022/06/25 08:27:49;;;;;;;2.90;2.20;;;23.70;90.20;;;;;;5045434;28;20522;-86
2022/06/25 08:30:32;;;;;;;9.33;2.10;;;24.50;87.50;;;;;;5052447;28;20436;-85
2022/06/25 08:33:04;;;;;;;3.03;1.70;;;24.70;85.80;;;;;;5052771;28;20440;-82
2022/06/25 08:35:31;;;;;;;1.73;1.40;;;24.80;85.20;;;;;;5045007;28;21107;-84
2022/06/25 08:37:58;;;;;;;1.50;1.40;;;25.20;82.50;;;;;;5027587;28;20551;-81
2022/06/25 08:40:32;;;;;;;3.37;1.90;;;25.50;81.40;;;;;;5048843;28;20495;-83
2022/06/25 08:43:02;;;;;;;3.67;1.70;;;25.40;81.00;;;;;;5043637;28;20532;-80
2022/06/25 08:45:29;;;;;;;3.03;1.60;;;25.20;80.00;;;;;;5042657;28;20445;-80
2022/06/25 08:47:58;;;;;;;1.90;1.40;;;25.70;79.10;;;;;;5049249;28;20600;-86
2022/06/25 08:50:30;;;;;;;5.20;2.00;;;25.90;77.90;;;;;;5044471;28;20459;-84
2022/06/25 08:52:57;;;;;;;1.40;1.30;;;25.80;77.30;;;;;;5044945;28;20514;-84
2022/06/25 08:55:32;;;;;;;2.03;1.53;;;25.70;77.00;;;;;;5027576;28;20524;-83
2022/06/25 08:58:01;;;;;;;3.57;1.53;;;25.50;78.20;;;;;;5026287;28;20464;-81
2022/06/25 09:00:30;;;;;;;1.80;1.70;;;25.80;79.20;;;;;;5040250;28;20479;-81
2022/06/25 09:03:00;;;;;;;2.00;1.70;;;25.90;78.60;;;;;;5025648;28;20483;-82
2022/06/25 09:05:30;;;;;;;2.10;1.80;;;25.70;79.00;;;;;;5026621;28;20480;-85
2022/06/25 09:08:02;;;;;;;2.90;1.43;;;25.40;79.50;;;;;;5039503;28;21074;-80
2022/06/25 09:10:32;;;;;;;2.70;2.27;;;25.80;77.80;;;;;;5024461;28;20476;-86
2022/06/25 09:13:51;;;;;;;3.77;2.20;;;25.90;77.00;;;;;;5044494;28;20512;-83
2022/06/25 09:17:00;;;;;;;2.73;1.60;;;25.30;79.10;;;;;;5040601;28;20433;-82
2022/06/25 09:19:57;;;;;;;5.67;1.60;;;25.20;80.80;;;;;;5046076;28;20451;-84
2022/06/25 09:22:35;;;;;;;2.40;1.27;;;26.00;79.30;;;;;;5027885;28;20452;-84
2022/06/25 09:25:11;;;;;;;1.70;1.60;;;27.30;71.90;;;;;;5044082;28;20506;-81
2022/06/25 09:27:59;;;;;;;2.37;1.50;;;27.80;68.70;;;;;;5001284;28;20463;-85
2022/06/25 09:30:38;;;;;;;2.53;1.70;;;27.70;68.10;;;;;;5022028;28;20465;-85
2022/06/25 09:33:40;;;;;;;2.37;1.60;;;27.50;68.90;;;;;;5022962;28;20456;-86
2022/06/25 09:36:10;;;;;;;2.70;2.00;;;26.80;70.80;;;;;;5015116;28;20452;-87
2022/06/25 09:38:56;;;;;;;2.90;2.00;;;27.00;75.40;;;;;;5043576;28;20448;-85
2022/06/25 09:42:01;;;;;;;3.87;2.10;;;26.90;76.00;;;;;;4986285;28;20574;-83
2022/06/25 09:47:02;;;;;;;3.10;2.00;;;27.20;74.00;;;;;;5004208;28;20454;-86
2022/06/25 09:49:34;;;;;;;4.03;2.07;;;26.80;75.70;;;;;;4987034;28;20450;-86
2022/06/25 09:52:06;;;;;;;3.43;2.47;;;26.20;77.50;;;;;;4989601;28;20456;-87
2022/06/25 09:55:02;;;;;;;2.33;2.03;;;25.80;79.20;;;;;;4975744;28;21746;-85
2022/06/25 09:57:34;;;;;;;6.87;2.23;;;25.70;80.20;;;;;;4989382;28;20459;-85
2022/06/25 10:00:31;;;;;;;2.17;1.90;;;25.60;79.80;;;;;;4989753;28;20531;-85
2022/06/25 10:03:13;;;;;;;4.90;1.70;;;26.40;78.00;;;;;;4975599;28;20489;-87
2022/06/25 10:05:44;;;;;;;4.10;1.93;;;27.30;73.50;;;;;;4988779;28;20465;-86
2022/06/25 10:08:27;;;;;;;1.83;1.70;;;27.10;74.50;;;;;;4970888;28;20455;-88
2022/06/25 10:11:35;;;;;;;;;;;;;;;;;;;;;
2022/06/25 10:14:26;;;;;;;2.50;1.77;;;27.00;73.40;;;;;;4989448;28;20474;-83
2022/06/25 10:17:10;;;;;;;2.60;1.90;;;27.80;70.00;;;;;;4973180;28;20475;-86
2022/06/25 10:19:39;;;;;;;4.30;2.00;;;27.70;68.50;;;;;;4991146;28;20459;-86
2022/06/25 10:22:06;;;;;;;1.83;1.73;;;27.50;68.80;;;;;;4987459;28;20482;-85
2022/06/25 10:25:02;;;;;;;2.50;2.03;;;27.40;68.00;;;;;;4986701;28;20471;-83
2022/06/25 10:28:06;;;;;;;1.73;1.63;;;27.00;64.90;;;;;;4990518;28;20969;-83
2022/06/25 10:30:45;;;;;;;2.03;1.67;;;26.50;67.60;;;;;;4976578;28;20482;-87
2022/06/25 10:33:32;;;;;;;1.80;1.47;;;26.10;69.70;;;;;;4991210;28;20492;-83
2022/06/25 10:36:14;;;;;;;1.97;1.67;;;26.50;70.40;;;;;;4976034;28;20457;-84
2022/06/25 10:38:44;;;;;;;2.27;2.07;;;27.00;66.70;;;;;;4973193;28;20439;-86
2022/06/25 10:43:59;;;;;;;1.90;1.43;;;27.90;62.40;;;;;;4989548;28;20547;-88
2022/06/25 10:46:36;;;;;;;2.33;1.90;;;27.70;62.90;;;;;;4992655;28;20471;-83
2022/06/25 10:49:17;;;;;;;2.60;1.80;;;27.80;61.80;;;;;;4989864;28;20799;-85
2022/06/25 10:51:51;;;;;;;2.87;1.90;;;27.70;64.40;;;;;;4969094;28;20465;-84
2022/06/25 10:54:26;;;;;;;2.00;1.80;;;27.60;67.20;;;;;;4992786;28;20471;-86
2022/06/25 10:57:00;;;;;;;3.90;1.83;;;27.80;68.80;;;;;;5000966;28;20531;-85
2022/06/25 10:59:37;;;;;;;4.27;1.80;;;28.50;68.50;;;;;;4989482;28;20522;-85
2022/06/25 11:02:09;;;;;;;1.73;1.63;;;29.50;65.20;;;;;;5001505;28;20482;-86
2022/06/25 11:04:37;;;;;;;4.87;1.90;;;29.70;62.50;;;;;;4984767;28;20479;-85
2022/06/25 11:07:17;;;;;;;4.57;1.90;;;29.40;63.40;;;;;;5005647;28;20791;-87
2022/06/25 11:10:03;;;;;;;1.70;1.60;;;29.60;62.30;;;;;;5001989;28;20431;-88
2022/06/25 11:12:52;;;;;;;2.50;1.93;;;29.50;60.80;;;;;;5004803;28;21031;-85
2022/06/25 11:16:02;;;;;;;;;;;;;;;;;;;;;
2022/06/25 11:18:54;;;;;;;2.37;1.80;;;29.30;62.50;;;;;;4987670;28;20430;-85
2022/06/25 11:22:02;;;;;;;2.50;1.53;;;28.60;62.90;;;;;;4920727;29;20494;-85
2022/06/25 11:31:33;;;;;;;6.27;2.20;;;27.50;66.80;;;;;;4906708;29;20471;-84
2022/06/25 11:34:02;;;;;;;2.80;1.93;;;27.10;69.10;;;;;;4892603;29;20482;-85
2022/06/25 11:36:51;;;;;;;2.87;1.90;;;27.20;69.70;;;;;;4893246;29;20475;-86
2022/06/25 11:39:34;;;;;;;1.90;1.80;;;28.00;68.00;;;;;;4907607;29;20463;-86
2022/06/25 11:42:17;;;;;;;2.00;1.60;;;28.60;65.20;;;;;;4903945;29;20932;-86
2022/06/25 11:45:01;;;;;;;3.00;2.00;;;29.20;61.70;;;;;;4914609;29;20490;-85
2022/06/25 11:47:35;;;;;;;1.73;1.63;;;29.40;60.80;;;;;;4905230;29;20462;-87
2022/06/25 11:50:28;;;;;;;3.30;2.20;;;28.90;62.20;;;;;;4905928;29;20827;-88
2022/06/25 11:53:22;;;;;;;2.13;1.70;;;28.90;63.50;;;;;;4969176;28;20461;-87
2022/06/25 11:56:35;;;;;;;2.10;1.90;;;29.50;59.30;;;;;;4994044;28;20446;-85
2022/06/25 11:59:02;;;;;;;2.83;1.53;;;28.70;60.40;;;;;;4971533;28;21094;-84
2022/06/25 12:01:31;;;;;;;2.93;1.93;;;27.70;63.80;;;;;;4960155;28;20657;-86
2022/06/25 12:04:03;;;;;;;4.10;3.50;;;27.80;63.60;;;;;;4990759;28;20508;-84
2022/06/25 12:06:54;;;;;;;2.30;1.80;;;27.30;64.30;;;;;;5005603;28;20479;-83
2022/06/25 12:09:22;;;;;;;2.23;1.90;;;27.00;65.30;;;;;;4999679;28;20454;-87
2022/06/25 12:11:52;;;;;;;3.23;2.00;;;26.90;65.80;;;;;;5000537;28;20447;-86
2022/06/25 12:14:20;;;;;;;5.13;2.17;;;26.70;65.80;;;;;;4985145;28;20470;-83
2022/06/25 12:16:48;;;;;;;2.60;1.33;;;26.90;66.10;;;;;;4996260;28;20454;-82
2022/06/25 12:19:16;;;;;;;2.23;2.00;;;27.30;61.70;;;;;;4990082;28;20550;-85
2022/06/25 12:21:43;;;;;;;2.20;2.00;;;27.60;59.70;;;;;;4991431;28;20471;-83
2022/06/25 12:24:14;;;;;;;3.73;1.73;;;27.40;59.60;;;;;;4984792;28;20490;-84
2022/06/25 12:26:49;;;;;;;3.57;2.07;;;27.30;59.40;;;;;;4981716;28;20459;-83
2022/06/25 12:29:20;;;;;;;2.10;1.60;;;27.90;59.10;;;;;;4987983;28;20447;-85
2022/06/25 12:32:01;;;;;;;2.00;1.47;;;28.10;58.50;;;;;;4990883;28;20455;-85
2022/06/25 12:34:49;;;;;;;3.40;2.07;;;28.00;58.50;;;;;;4989055;28;20494;-85
2022/06/25 12:37:30;;;;;;;1.90;1.33;;;27.70;59.20;;;;;;4987706;28;20459;-85
2022/06/25 12:39:59;;;;;;;1.37;1.17;;;27.90;59.20;;;;;;4998250;28;20463;-83
2022/06/25 12:42:33;;;;;;;2.60;1.60;;;28.10;57.90;;;;;;4987665;28;20490;-86
2022/06/25 12:45:00;;;;;;;2.43;1.40;;;28.00;58.00;;;;;;4987128;28;20495;-87
2022/06/25 12:47:39;;;;;;;1.70;1.47;;;27.80;58.30;;;;;;4989748;28;20455;-86
2022/06/25 12:50:06;;;;;;;2.63;1.43;;;28.00;58.00;;;;;;4984174;28;20467;-86
2022/06/25 12:52:39;;;;;;;1.70;1.20;;;27.80;57.90;;;;;;4987043;28;20510;-85
2022/06/25 12:55:07;;;;;;;1.70;1.60;;;27.70;58.00;;;;;;4988759;28;20584;-84
2022/06/25 12:57:37;;;;;;;2.90;1.90;;;27.60;58.30;;;;;;4986593;28;20829;-81
2022/06/25 13:00:21;;;;;;;3.87;2.13;;;27.40;58.80;;;;;;4987771;28;20447;-84
2022/06/25 13:02:48;;;;;;;1.33;1.23;;;27.20;59.40;;;;;;4989317;28;20515;-85
2022/06/25 13:05:17;;;;;;;1.67;1.20;;;27.20;59.50;;;;;;4992744;28;20459;-85
2022/06/25 13:07:45;;;;;;;1.53;1.43;;;27.30;60.00;;;;;;4985487;28;20490;-87
2022/06/25 13:10:13;;;;;;;7.73;6.93;;;27.40;59.50;;;;;;4985194;28;20455;-84
2022/06/25 13:12:40;;;;;;;4.33;2.57;;;27.20;59.50;;;;;;4985870;28;20459;-84
2022/06/25 13:15:08;;;;;;;4.50;2.63;;;27.20;59.90;;;;;;4985977;28;20494;-84
2022/06/25 13:17:35;;;;;;;3.00;2.03;;;27.10;60.00;;;;;;4996341;28;20507;-85
2022/06/25 13:20:03;;;;;;;2.13;1.70;;;26.90;60.20;;;;;;4986310;28;20448;-86
2022/06/25 13:22:30;;;;;;;2.73;2.33;;;26.80;59.80;;;;;;4986098;28;20486;-86
2022/06/25 13:24:59;;;;;;;1.40;1.30;;;26.80;59.90;;;;;;4988868;28;20834;-83
2022/06/25 13:27:26;;;;;;;1.90;1.40;;;26.90;59.60;;;;;;4988961;28;20459;-85
2022/06/25 13:29:53;;;;;;;104.33;82.10;;;27.40;58.60;;;;;;4984292;28;20983;-83
2022/06/25 13:32:20;;;;;;;1.97;1.57;;;27.50;57.70;;;;;;4986454;28;20459;-84
2022/06/25 13:34:50;;;;;;;1.73;1.40;;;27.30;58.00;;;;;;4985491;28;20489;-85
2022/06/25 13:37:17;;;;;;;3.40;2.87;;;27.40;57.60;;;;;;4983453;28;20462;-84